Algernon, Nebraska
Current Conditions -  °F | °C
As of 1:53 PM on Friday 24 Oct 2014 (Local Time) from KBBW Reporting Station
Clear Clear  
Wind Chill: 81°   Ceiling: Unl
Heat Index: 81°   Visibility: 10mi
Dew Point: 40°   Wind: 10mph
Humidity: 23%   Direction: 340°NNW
Pressure: 29.95"   Gusts: NA
Location:  41.1632°N, 99.3112°W
Report Text: KBBW 241853Z AUTO 34009KT 10SM CLR 27/04 A2995 RMK AO2 SLP125 T02720044
Loading
Personal Weather Stations






























Interactive Weather Map
Tropical Storm Tracking
New forecast layout! Learn more

10-Day Weather Forecast

Advertisements
Track Severe Weather on mobile